createdAt,value
2017-09-03T00:00:50.073Z,98.70
2017-09-03T00:03:18.351Z,99.10
2017-09-03T00:05:46.619Z,98.80
2017-09-03T00:08:14.920Z,98.80
2017-09-03T00:10:43.206Z,98.90
2017-09-03T00:13:11.516Z,99.00
2017-09-03T00:15:39.768Z,98.80
2017-09-03T00:18:08.032Z,98.90
2017-09-03T00:20:36.320Z,98.90
2017-09-03T00:23:04.617Z,98.80
2017-09-03T00:25:32.881Z,98.80
2017-09-03T00:28:01.176Z,98.70
2017-09-03T00:30:29.445Z,99.00
2017-09-03T00:32:57.708Z,99.10
2017-09-03T00:35:26.001Z,99.10
2017-09-03T00:37:54.264Z,99.10
2017-09-03T00:40:22.563Z,99.00
2017-09-03T00:42:50.815Z,98.90
2017-09-03T00:45:19.079Z,98.80
2017-09-03T00:47:47.386Z,98.70
2017-09-03T00:50:15.644Z,98.70
2017-09-03T00:52:43.903Z,98.80
2017-09-03T00:55:12.197Z,99.20
2017-09-03T00:57:40.456Z,99.40
2017-09-03T01:00:08.758Z,99.10
2017-09-03T01:02:37.026Z,99.20
2017-09-03T01:05:05.339Z,99.40
2017-09-03T01:07:33.599Z,99.30
2017-09-03T01:10:01.865Z,99.20
2017-09-03T01:12:30.159Z,99.20
2017-09-03T01:14:58.449Z,99.00
2017-09-03T01:17:26.712Z,98.80
2017-09-03T01:19:54.991Z,98.90
2017-09-03T01:22:23.244Z,99.00
2017-09-03T01:24:51.535Z,99.10
2017-09-03T01:27:19.785Z,99.00
2017-09-03T01:29:48.048Z,99.10
2017-09-03T01:32:16.347Z,98.90
2017-09-03T01:34:44.598Z,98.90
2017-09-03T01:37:12.865Z,98.80
2017-09-03T01:39:41.147Z,98.50
2017-09-03T01:42:09.423Z,98.60
2017-09-03T01:44:37.697Z,98.70
2017-09-03T01:47:05.983Z,98.80
2017-09-03T01:49:34.244Z,98.90
2017-09-03T01:52:02.506Z,98.90
2017-09-03T01:54:30.783Z,98.90
2017-09-03T01:56:58.298Z,98.90
2017-09-03T01:59:26.551Z,99.00
2017-09-03T02:01:54.860Z,99.10
2017-09-03T02:04:23.146Z,98.90
2017-09-03T02:06:50.642Z,98.90
2017-09-03T02:09:18.931Z,98.90
2017-09-03T02:11:47.234Z,98.90
2017-09-03T02:14:15.496Z,98.90
2017-09-03T02:16:43.759Z,98.70
2017-09-03T02:19:12.018Z,98.90
2017-09-03T02:21:40.305Z,98.90
2017-09-03T02:24:08.558Z,99.20
2017-09-03T02:26:36.839Z,99.10
2017-09-03T02:29:05.102Z,98.90
2017-09-03T02:31:33.366Z,99.00
2017-09-03T02:34:01.656Z,98.70
2017-09-03T02:36:29.912Z,98.70
2017-09-03T02:38:58.176Z,98.80
2017-09-03T02:41:26.499Z,98.60
2017-09-03T02:43:54.751Z,98.80
2017-09-03T02:46:23.005Z,98.90
2017-09-03T02:48:51.287Z,99.00
2017-09-03T02:51:19.535Z,99.00
2017-09-03T02:53:48.123Z,98.90
2017-09-03T02:56:16.377Z,98.70
2017-09-03T02:58:44.632Z,98.90
2017-09-03T03:01:12.912Z,98.80
2017-09-03T03:03:41.207Z,98.80
2017-09-03T03:06:09.511Z,98.80
2017-09-03T03:08:37.768Z,98.70
2017-09-03T03:11:06.015Z,98.80
2017-09-03T03:13:34.304Z,98.60
2017-09-03T03:16:02.557Z,98.50
2017-09-03T03:18:30.835Z,98.60
2017-09-03T03:20:59.122Z,98.50
2017-09-03T03:23:27.390Z,98.40
2017-09-03T03:25:55.678Z,98.40
2017-09-03T03:28:23.963Z,98.40
2017-09-03T03:30:52.224Z,98.40
2017-09-03T03:33:20.563Z,98.60
2017-09-03T03:35:48.833Z,98.70
2017-09-03T03:38:17.090Z,98.80
2017-09-03T03:40:45.383Z,99.00
2017-09-03T03:43:13.636Z,99.00
2017-09-03T03:45:41.931Z,99.10
2017-09-03T03:48:10.195Z,99.10
2017-09-03T03:50:38.455Z,99.00
2017-09-03T03:53:06.724Z,98.90
2017-09-03T03:55:35.021Z,98.90
2017-09-03T03:58:03.355Z,98.70
2017-09-03T04:00:31.615Z,98.70
2017-09-03T04:02:59.885Z,98.70
2017-09-03T04:05:28.176Z,98.60
2017-09-03T04:07:56.441Z,98.50
2017-09-03T04:10:24.719Z,98.50
2017-09-03T04:12:52.980Z,98.50
2017-09-03T04:15:21.275Z,98.50
2017-09-03T04:17:49.528Z,98.50
2017-09-03T04:20:17.784Z,98.60
2017-09-03T04:22:46.081Z,98.60
2017-09-03T04:25:14.335Z,98.60
2017-09-03T04:27:42.612Z,98.60
2017-09-03T04:30:10.910Z,98.90
2017-09-03T04:32:39.176Z,98.90
2017-09-03T04:35:07.478Z,98.80
2017-09-03T04:37:35.741Z,98.70
2017-09-03T04:40:04.026Z,98.70
2017-09-03T04:42:32.281Z,98.80
2017-09-03T04:45:00.579Z,98.90
2017-09-03T04:47:28.844Z,98.90
2017-09-03T04:49:57.120Z,98.90
2017-09-03T04:52:25.411Z,98.90
2017-09-03T04:54:53.712Z,98.80
2017-09-03T04:57:21.966Z,98.70
2017-09-03T04:59:50.224Z,98.80
2017-09-03T05:02:18.520Z,98.90
2017-09-03T05:04:46.784Z,98.80
2017-09-03T05:07:15.036Z,98.90
2017-09-03T05:09:43.318Z,99.10
2017-09-03T05:12:11.699Z,99.00
2017-09-03T05:14:39.964Z,99.10
2017-09-03T05:17:08.220Z,99.10
2017-09-03T05:19:36.512Z,99.10
2017-09-03T05:22:04.780Z,99.20
2017-09-03T05:24:33.067Z,99.20
2017-09-03T05:27:01.331Z,99.20
2017-09-03T05:29:28.856Z,99.20
2017-09-03T05:31:57.120Z,99.60
2017-09-03T05:34:25.407Z,99.80
2017-09-03T05:36:53.675Z,99.90
2017-09-03T05:39:21.931Z,99.90
2017-09-03T05:41:50.215Z,99.90
2017-09-03T05:44:18.480Z,99.90
2017-09-03T05:46:46.779Z,99.90
2017-09-03T05:49:15.041Z,99.90
2017-09-03T05:51:43.297Z,99.90
2017-09-03T05:54:11.612Z,99.90
2017-09-03T05:56:39.899Z,99.90
2017-09-03T05:59:08.163Z,99.90
2017-09-03T06:01:36.464Z,99.90
2017-09-03T06:04:04.733Z,99.90
2017-09-03T06:06:33.026Z,99.90
2017-09-03T06:09:01.288Z,99.90
2017-09-03T06:11:29.589Z,99.90
2017-09-03T06:13:57.864Z,99.90
2017-09-03T06:16:26.128Z,99.90
2017-09-03T06:18:54.426Z,99.90
2017-09-03T06:21:22.712Z,99.90
2017-09-03T06:23:50.997Z,99.90
2017-09-03T06:26:19.331Z,99.90
2017-09-03T06:28:47.628Z,99.90
2017-09-03T06:31:15.917Z,99.90
2017-09-03T06:33:44.237Z,99.90
2017-09-03T06:36:11.751Z,99.90
2017-09-03T06:38:40.058Z,99.90
2017-09-03T06:41:08.343Z,99.90
2017-09-03T06:43:36.670Z,99.90
2017-09-03T06:46:04.967Z,99.90
2017-09-03T06:48:33.252Z,99.90
2017-09-03T06:51:01.540Z,99.90
2017-09-03T06:53:29.795Z,99.90
2017-09-03T06:55:58.084Z,99.90
2017-09-03T06:58:26.372Z,99.90
2017-09-03T07:00:54.659Z,99.90
2017-09-03T07:03:22.914Z,99.90
2017-09-03T07:05:51.236Z,99.90
2017-09-03T07:08:18.739Z,99.90
2017-09-03T07:10:47.019Z,99.90
2017-09-03T07:13:15.332Z,99.90
2017-09-03T07:15:43.599Z,99.90
2017-09-03T07:18:11.877Z,99.90
2017-09-03T07:20:40.178Z,99.90
2017-09-03T07:23:08.439Z,99.90
2017-09-03T07:25:36.736Z,99.90
2017-09-03T07:28:04.272Z,99.90
2017-09-03T07:30:32.544Z,99.90
2017-09-03T07:33:00.855Z,99.90
2017-09-03T07:35:29.136Z,99.90
2017-09-03T07:37:57.406Z,99.90
2017-09-03T07:40:25.722Z,99.90
2017-09-03T07:42:53.990Z,99.90
2017-09-03T07:45:22.265Z,99.90
2017-09-03T07:47:49.803Z,99.90
2017-09-03T07:50:18.984Z,99.90
2017-09-03T07:52:47.267Z,99.90
2017-09-03T07:55:15.583Z,99.90
2017-09-03T07:57:43.852Z,99.90
2017-09-03T08:00:12.124Z,99.90
2017-09-03T08:02:40.425Z,99.90
2017-09-03T08:05:08.700Z,99.90
2017-09-03T08:07:36.987Z,99.90
2017-09-03T08:10:05.291Z,99.90
2017-09-03T08:12:33.553Z,99.90
2017-09-03T08:15:01.811Z,99.90
2017-09-03T08:17:30.119Z,99.90
2017-09-03T08:19:58.413Z,99.90
2017-09-03T08:22:26.687Z,99.90
2017-09-03T08:24:54.997Z,99.90
2017-09-03T08:27:23.292Z,99.90
2017-09-03T08:29:51.546Z,99.90
2017-09-03T08:32:19.857Z,99.90
2017-09-03T08:34:48.123Z,99.90
2017-09-03T08:37:16.395Z,99.90
2017-09-03T08:39:44.716Z,99.90
2017-09-03T08:42:13.001Z,99.00
2017-09-03T08:44:41.322Z,99.20
2017-09-03T08:47:09.679Z,99.20
2017-09-03T08:49:37.972Z,99.60
2017-09-03T08:52:06.264Z,99.90
2017-09-03T08:54:34.606Z,99.90
2017-09-03T08:57:02.876Z,99.60
2017-09-03T08:59:31.143Z,99.90
2017-09-03T09:01:59.455Z,98.10
2017-09-03T09:04:27.724Z,97.40
2017-09-03T09:06:55.993Z,97.30
2017-09-03T09:09:24.297Z,97.50
2017-09-03T09:11:52.568Z,97.20
2017-09-03T09:14:20.855Z,96.30
2017-09-03T09:16:49.157Z,96.90
2017-09-03T09:19:17.459Z,97.30
2017-09-03T09:21:45.730Z,97.60
2017-09-03T09:24:14.036Z,95.90
2017-09-03T09:26:42.290Z,95.60
2017-09-03T09:29:10.555Z,96.40
2017-09-03T09:31:38.855Z,95.90
2017-09-03T09:34:07.135Z,94.90
2017-09-03T09:36:35.387Z,91.80
2017-09-03T09:39:02.922Z,91.80
2017-09-03T09:41:31.184Z,92.40
2017-09-03T09:43:59.435Z,91.20
2017-09-03T09:46:27.732Z,92.70
2017-09-03T09:48:55.999Z,92.90
2017-09-03T09:51:24.296Z,93.30
2017-09-03T09:53:52.608Z,93.60
2017-09-03T09:56:26.889Z,92.60
2017-09-03T09:58:55.171Z,92.50
2017-09-03T10:01:23.436Z,91.20
2017-09-03T10:03:51.728Z,92.10
2017-09-03T10:06:20.015Z,92.80
2017-09-03T10:08:48.280Z,90.70
2017-09-03T10:11:15.790Z,90.70
2017-09-03T10:13:44.086Z,91.10
2017-09-03T10:16:12.350Z,91.00
2017-09-03T10:18:40.652Z,91.00
2017-09-03T10:21:08.916Z,90.00
2017-09-03T10:23:37.190Z,90.00
2017-09-03T10:26:05.496Z,91.10
2017-09-03T10:28:33.767Z,90.20
2017-09-03T10:31:02.067Z,91.50
2017-09-03T10:33:30.336Z,91.40
2017-09-03T10:35:58.608Z,90.00
2017-09-03T10:38:26.912Z,86.40
2017-09-03T10:40:55.171Z,87.40
2017-09-03T10:43:23.472Z,86.10
2017-09-03T10:45:51.732Z,87.90
2017-09-03T10:48:19.994Z,88.30
2017-09-03T10:50:48.282Z,87.00
2017-09-03T10:53:16.565Z,85.80
2017-09-03T10:55:44.864Z,85.10
2017-09-03T10:58:13.124Z,83.30
2017-09-03T11:00:41.385Z,81.90
2017-09-03T11:03:09.675Z,84.10
2017-09-03T11:05:37.936Z,82.60
2017-09-03T11:08:06.283Z,84.80
2017-09-03T11:10:34.545Z,84.80
2017-09-03T11:13:02.812Z,83.60
2017-09-03T11:15:31.118Z,83.90
2017-09-03T11:17:59.384Z,84.60
2017-09-03T11:20:27.643Z,84.20
2017-09-03T11:22:55.938Z,85.10
2017-09-03T11:25:24.241Z,82.30
2017-09-03T11:27:52.502Z,85.90
2017-09-03T11:30:20.814Z,82.00
2017-09-03T11:32:49.086Z,80.40
2017-09-03T11:35:17.358Z,79.80
2017-09-03T11:37:45.647Z,79.30
2017-09-03T11:40:13.941Z,83.90
2017-09-03T11:42:42.219Z,79.00
2017-09-03T11:45:10.539Z,78.50
2017-09-03T11:47:38.798Z,83.20
2017-09-03T11:50:07.076Z,83.90
2017-09-03T11:52:35.361Z,85.60
2017-09-03T11:55:03.645Z,83.90
2017-09-03T11:57:31.911Z,79.20
2017-09-03T12:00:00.190Z,77.80
2017-09-03T12:02:28.476Z,82.00
2017-09-03T12:04:56.768Z,81.20
2017-09-03T12:07:25.067Z,83.60
2017-09-03T12:09:53.337Z,78.50
2017-09-03T12:12:21.661Z,80.30
2017-09-03T12:14:49.911Z,76.90
2017-09-03T12:17:18.162Z,76.40
2017-09-03T12:19:46.451Z,77.40
2017-09-03T12:22:14.711Z,75.80
2017-09-03T12:24:43.010Z,79.40
2017-09-03T12:27:11.306Z,80.70
2017-09-03T12:29:39.567Z,72.80
2017-09-03T12:32:07.847Z,77.80
2017-09-03T12:34:36.127Z,76.40
2017-09-03T12:37:04.383Z,75.40
2017-09-03T12:39:32.684Z,77.20
2017-09-03T12:42:00.943Z,74.50
2017-09-03T12:44:29.209Z,77.90
2017-09-03T12:46:57.502Z,75.90
2017-09-03T12:49:25.799Z,74.50
2017-09-03T12:51:54.063Z,72.50
2017-09-03T12:54:22.328Z,68.20
2017-09-03T12:56:50.653Z,71.90
2017-09-03T12:59:18.919Z,69.60
2017-09-03T13:01:46.436Z,69.60
2017-09-03T13:04:14.727Z,64.60
2017-09-03T13:06:42.233Z,64.60
2017-09-03T13:09:10.556Z,70.20
2017-09-03T13:11:38.868Z,67.90
2017-09-03T13:14:07.119Z,68.80
2017-09-03T13:16:35.428Z,68.20
2017-09-03T13:19:03.683Z,70.80
2017-09-03T13:21:31.953Z,72.50
2017-09-03T13:24:00.236Z,70.70
2017-09-03T13:26:28.496Z,73.20
2017-09-03T13:28:56.798Z,75.20
2017-09-03T13:31:25.067Z,73.60
2017-09-03T13:33:53.336Z,73.60
2017-09-03T13:36:21.628Z,75.50
2017-09-03T13:38:49.898Z,77.70
2017-09-03T13:41:18.201Z,76.30
2017-09-03T13:43:46.511Z,76.00
2017-09-03T13:46:14.797Z,74.60
2017-09-03T13:48:43.059Z,77.40
2017-09-03T13:51:11.343Z,72.30
2017-09-03T13:53:39.635Z,76.90
2017-09-03T13:56:07.903Z,72.70
2017-09-03T13:58:36.207Z,72.20
2017-09-03T14:01:04.463Z,70.70
2017-09-03T14:03:32.733Z,73.10
2017-09-03T14:06:01.041Z,72.20
2017-09-03T14:08:29.323Z,71.20
2017-09-03T14:10:57.598Z,72.00
2017-09-03T14:13:25.895Z,72.20
2017-09-03T14:15:54.152Z,70.80
2017-09-03T14:18:22.435Z,72.00
2017-09-03T14:20:50.696Z,73.10
2017-09-03T14:23:19.009Z,72.80
2017-09-03T14:25:47.272Z,70.20
2017-09-03T14:28:16.460Z,70.40
2017-09-03T14:30:44.764Z,68.00
2017-09-03T14:33:13.027Z,70.00
2017-09-03T14:35:41.292Z,73.10
2017-09-03T14:38:09.597Z,72.20
2017-09-03T14:40:37.855Z,68.20
2017-09-03T14:43:06.145Z,70.10
2017-09-03T14:45:34.420Z,69.00
2017-09-03T14:48:02.714Z,67.20
2017-09-03T14:50:30.980Z,69.00
2017-09-03T14:52:59.272Z,70.60
2017-09-03T14:55:27.551Z,66.30
2017-09-03T14:57:55.849Z,67.40
2017-09-03T15:00:24.114Z,69.80
2017-09-03T15:02:52.395Z,65.50
2017-09-03T15:05:20.660Z,69.40
2017-09-03T15:07:48.949Z,67.70
2017-09-03T15:10:17.226Z,67.60
2017-09-03T15:12:45.484Z,66.50
2017-09-03T15:15:13.779Z,71.60
2017-09-03T15:17:42.057Z,68.90
2017-09-03T15:20:09.551Z,68.90
2017-09-03T15:22:37.859Z,71.40
2017-09-03T15:25:06.119Z,70.20
2017-09-03T15:27:34.407Z,72.00
2017-09-03T15:30:02.670Z,72.10
2017-09-03T15:32:30.956Z,70.90
2017-09-03T15:34:59.233Z,74.00
2017-09-03T15:37:27.522Z,73.20
2017-09-03T15:39:55.828Z,75.40
2017-09-03T15:42:24.099Z,73.50
2017-09-03T15:44:52.364Z,74.60
2017-09-03T15:47:20.667Z,74.10
2017-09-03T15:49:48.921Z,73.60
2017-09-03T15:52:17.179Z,71.90
2017-09-03T15:54:45.480Z,70.10
2017-09-03T15:57:13.742Z,72.50
2017-09-03T15:59:41.996Z,73.60
2017-09-03T16:02:10.292Z,74.70
2017-09-03T16:04:38.554Z,74.70
2017-09-03T16:07:06.847Z,75.20
2017-09-03T16:09:35.112Z,73.70
2017-09-03T16:12:03.423Z,74.70
2017-09-03T16:14:31.696Z,74.40
2017-09-03T16:16:59.961Z,74.50
2017-09-03T16:19:28.252Z,75.10
2017-09-03T16:21:56.544Z,75.60
2017-09-03T16:24:24.848Z,71.50
2017-09-03T16:26:53.112Z,73.60
2017-09-03T16:29:21.375Z,72.60
2017-09-03T16:31:49.668Z,72.70
2017-09-03T16:34:17.934Z,71.60
2017-09-03T16:36:46.217Z,70.80
2017-09-03T16:39:14.516Z,71.60
2017-09-03T16:41:42.763Z,71.30
2017-09-03T16:44:11.054Z,68.90
2017-09-03T16:46:38.555Z,68.70
2017-09-03T16:49:06.812Z,69.00
2017-09-03T16:51:35.082Z,68.70
2017-09-03T16:54:03.407Z,69.70
2017-09-03T16:56:31.718Z,70.20
2017-09-03T16:58:59.983Z,70.80
2017-09-03T17:01:28.248Z,73.10
2017-09-03T17:03:56.547Z,73.30
2017-09-03T17:06:24.799Z,72.10
2017-09-03T17:08:52.297Z,72.00
2017-09-03T17:11:20.621Z,72.70
2017-09-03T17:13:48.879Z,71.80
2017-09-03T17:16:17.149Z,71.80
2017-09-03T17:18:45.465Z,72.00
2017-09-03T17:21:13.736Z,71.80
2017-09-03T17:23:41.987Z,72.50
2017-09-03T17:26:10.276Z,75.80
2017-09-03T17:28:38.545Z,76.20
2017-09-03T17:31:07.231Z,77.80
2017-09-03T17:33:35.522Z,77.70
2017-09-03T17:36:04.235Z,76.10
2017-09-03T17:38:49.204Z,77.20
2017-09-03T17:41:21.027Z,79.60
2017-09-03T17:43:50.096Z,82.20
2017-09-03T17:46:18.348Z,83.40
2017-09-03T17:48:46.638Z,84.00
2017-09-03T17:51:14.904Z,84.90
2017-09-03T17:53:43.200Z,86.30
2017-09-03T17:56:11.504Z,86.70
2017-09-03T17:58:39.819Z,86.30
2017-09-03T18:01:08.092Z,86.50
2017-09-03T18:03:36.390Z,86.60
2017-09-03T18:06:04.672Z,88.50
2017-09-03T18:08:32.968Z,88.00
2017-09-03T18:11:01.224Z,87.90
2017-09-03T18:13:29.480Z,87.80
2017-09-03T18:15:57.763Z,88.50
2017-09-03T18:18:26.019Z,89.10
2017-09-03T18:20:54.315Z,87.90
2017-09-03T18:23:22.608Z,87.80
2017-09-03T18:25:50.868Z,89.10
2017-09-03T18:28:20.075Z,89.40
2017-09-03T18:30:51.291Z,90.80
2017-09-03T18:33:19.551Z,91.10
2017-09-03T18:35:48.725Z,90.80
2017-09-03T18:38:17.475Z,90.50
2017-09-03T18:40:46.284Z,90.80
2017-09-03T18:43:16.139Z,91.20
2017-09-03T18:45:44.951Z,91.10
2017-09-03T18:48:13.251Z,91.20
2017-09-03T18:50:55.622Z,91.20
2017-09-03T18:53:25.694Z,91.80
2017-09-03T18:55:53.944Z,92.30
2017-09-03T18:58:40.950Z,91.90
2017-09-03T19:01:09.213Z,91.80
2017-09-03T19:03:37.511Z,91.90
2017-09-03T19:06:15.659Z,92.40
2017-09-03T19:08:43.954Z,92.90
2017-09-03T19:11:12.240Z,92.50
2017-09-03T19:13:40.502Z,92.20
2017-09-03T19:16:08.788Z,92.10
2017-09-03T19:18:37.048Z,92.20
2017-09-03T19:21:05.337Z,92.30
2017-09-03T19:23:33.619Z,92.30
2017-09-03T19:26:01.926Z,92.60
2017-09-03T19:28:30.192Z,92.80
2017-09-03T19:30:58.468Z,93.00
2017-09-03T19:33:26.734Z,92.60
2017-09-03T19:35:55.015Z,93.00
2017-09-03T19:38:24.064Z,93.80
2017-09-03T19:40:52.343Z,93.90
2017-09-03T19:43:20.638Z,94.30
2017-09-03T19:45:48.894Z,94.10
2017-09-03T19:48:17.211Z,94.10
2017-09-03T19:50:45.479Z,94.20
2017-09-03T19:53:13.732Z,93.90
2017-09-03T19:55:42.018Z,93.80
2017-09-03T19:58:10.272Z,94.50
2017-09-03T20:00:38.566Z,93.90
2017-09-03T20:03:06.827Z,94.30
2017-09-03T20:05:35.133Z,94.60
2017-09-03T20:08:03.383Z,94.60
2017-09-03T20:10:31.648Z,95.00
2017-09-03T20:12:59.927Z,95.00
2017-09-03T20:15:28.280Z,94.90
2017-09-03T20:17:56.591Z,95.00
2017-09-03T20:20:24.855Z,94.80
2017-09-03T20:22:53.107Z,94.80
2017-09-03T20:25:21.394Z,95.00
2017-09-03T20:27:49.663Z,95.40
2017-09-03T20:30:17.955Z,94.90
2017-09-03T20:32:46.221Z,95.10
2017-09-03T20:35:14.483Z,95.70
2017-09-03T20:37:42.787Z,95.10
2017-09-03T20:40:10.295Z,95.10
2017-09-03T20:42:38.593Z,95.60
2017-09-03T20:45:06.847Z,95.60
2017-09-03T20:47:35.098Z,95.40
2017-09-03T20:50:03.383Z,95.80
2017-09-03T20:52:31.647Z,96.00
2017-09-03T20:54:59.944Z,95.80
2017-09-03T20:57:28.211Z,95.70
2017-09-03T20:59:56.472Z,96.20
2017-09-03T21:02:24.765Z,95.90
2017-09-03T21:04:53.020Z,95.70
2017-09-03T21:07:21.289Z,96.10
2017-09-03T21:09:49.550Z,96.00
2017-09-03T21:12:17.847Z,96.20
2017-09-03T21:14:46.105Z,95.90
2017-09-03T21:17:14.398Z,95.60
2017-09-03T21:19:42.652Z,95.70
2017-09-03T21:22:10.944Z,96.20
2017-09-03T21:24:39.206Z,96.30
2017-09-03T21:27:07.515Z,95.80
2017-09-03T21:29:35.772Z,96.10
2017-09-03T21:32:04.071Z,96.00
2017-09-03T21:34:32.336Z,96.20
2017-09-03T21:37:00.595Z,96.30
2017-09-03T21:39:28.888Z,96.30
2017-09-03T21:41:57.159Z,96.40
2017-09-03T21:44:25.415Z,96.30
2017-09-03T21:46:53.719Z,96.50
2017-09-03T21:49:21.983Z,96.60
2017-09-03T21:51:50.236Z,96.60
2017-09-03T21:54:18.525Z,96.60
2017-09-03T21:56:46.833Z,96.50
2017-09-03T21:59:15.088Z,96.50
2017-09-03T22:01:43.335Z,96.90
2017-09-03T22:04:11.676Z,96.60
2017-09-03T22:06:39.961Z,96.70
2017-09-03T22:09:08.223Z,96.40
2017-09-03T22:11:36.511Z,96.30
2017-09-03T22:14:04.772Z,96.40
2017-09-03T22:16:33.068Z,96.50
2017-09-03T22:19:01.349Z,96.70
2017-09-03T22:21:29.682Z,96.70
2017-09-03T22:23:57.949Z,96.70
2017-09-03T22:26:26.216Z,96.80
2017-09-03T22:28:54.503Z,96.90
2017-09-03T22:31:22.800Z,96.90
2017-09-03T22:33:51.055Z,96.80
2017-09-03T22:36:19.359Z,96.80
2017-09-03T22:38:47.647Z,97.10
2017-09-03T22:41:15.943Z,96.80
2017-09-03T22:43:44.214Z,96.70
2017-09-03T22:46:12.478Z,96.80
2017-09-03T22:48:40.812Z,96.90
2017-09-03T22:51:09.068Z,97.00
2017-09-03T22:53:37.319Z,96.80
2017-09-03T22:56:05.632Z,96.90
2017-09-03T22:58:33.892Z,96.80
2017-09-03T23:01:02.165Z,97.00
2017-09-03T23:03:30.508Z,96.80
2017-09-03T23:05:58.765Z,96.70
2017-09-03T23:08:27.032Z,96.50
2017-09-03T23:10:55.332Z,96.60
2017-09-03T23:13:23.589Z,97.00
2017-09-03T23:15:51.886Z,96.90
2017-09-03T23:18:20.139Z,97.10
2017-09-03T23:20:48.392Z,97.10
2017-09-03T23:23:16.705Z,97.00
2017-09-03T23:25:44.959Z,96.90
2017-09-03T23:28:13.208Z,97.00
2017-09-03T23:30:41.495Z,96.60
2017-09-03T23:33:09.755Z,96.90
2017-09-03T23:35:38.067Z,97.10
2017-09-03T23:38:06.322Z,97.20
2017-09-03T23:40:34.588Z,97.00
2017-09-03T23:43:02.874Z,97.30
2017-09-03T23:45:31.136Z,97.30
2017-09-03T23:47:59.393Z,97.30
2017-09-03T23:50:27.694Z,97.40
2017-09-03T23:52:55.955Z,97.50
2017-09-03T23:55:24.246Z,97.20
2017-09-03T23:57:52.500Z,97.30
